Time;durP1;ratioP1;P1;durP2;ratioP2;P2;SDS_P1;SDS_P2;PMS_P1;PMS_P2;Temp;Humidity;BMP_temperature;BMP_pressure;BME280_temperature;BME280_humidity;BME280_pressure;Samples;Min_cycle;Max_cycle;Signal;HPM_P1;HPM_P2
2021/04/29 00:01:28;;;;;;;4.47;2.50;;;;;;;;;;5098226;28;20446;-53
2021/04/29 00:03:55;;;;;;;5.40;2.57;;;;;;;;;;5097902;28;20463;-56
2021/04/29 00:06:22;;;;;;;3.40;1.87;;;;;;;;;;5093736;28;20478;-54
2021/04/29 00:08:49;;;;;;;5.10;2.43;;;;;;;;;;5098261;28;20483;-57
2021/04/29 00:11:16;;;;;;;6.80;2.30;;;;;;;;;;5091434;28;20597;-52
2021/04/29 00:14:00;;;;;;;3.90;2.57;;;;;;;;;;5092286;28;20487;-54
2021/04/29 00:16:28;;;;;;;5.33;2.77;;;;;;;;;;5094123;28;20498;-56
2021/04/29 00:18:55;;;;;;;4.30;1.90;;;;;;;;;;5097952;28;20467;-52
2021/04/29 00:21:32;;;;;;;4.73;2.63;;;;;;;;;;5097470;28;20474;-57
2021/04/29 00:23:58;;;;;;;5.47;2.50;;;;;;;;;;5090207;28;20470;-56
2021/04/29 00:26:25;;;;;;;5.80;2.77;;;;;;;;;;5062806;28;20437;-58
2021/04/29 00:31:56;;;;;;;4.17;2.13;;;;;;;;;;5088644;28;20533;-51
2021/04/29 00:34:25;;;;;;;4.00;2.20;;;;;;;;;;5097888;28;20440;-56
2021/04/29 00:39:55;;;;;;;4.30;2.20;;;;;;;;;;5094491;28;20501;-54
2021/04/29 00:42:22;;;;;;;3.63;2.10;;;;;;;;;;5097085;28;20451;-53
2021/04/29 00:44:49;;;;;;;6.67;2.83;;;;;;;;;;5089104;28;20458;-54
2021/04/29 00:47:40;;;;;;;5.30;3.13;;;;;;;;;;5077943;28;20609;-48
2021/04/29 00:50:22;;;;;;;5.60;2.60;;;;;;;;;;5078279;28;20443;-55
2021/04/29 00:52:51;;;;;;;4.03;2.17;;;;;;;;;;5085743;28;20455;-55
2021/04/29 00:55:20;;;;;;;8.50;3.33;;;;;;;;;;5080845;28;20463;-59
2021/04/29 00:57:57;;;;;;;4.90;3.00;;;;;;;;;;5090095;28;20447;-51
2021/04/29 01:00:24;;;;;;;4.77;2.93;;;;;;;;;;5093005;28;20452;-56
2021/04/29 01:02:53;;;;;;;5.07;2.50;;;;;;;;;;5076657;28;20456;-56
2021/04/29 01:05:26;;;;;;;5.53;2.60;;;;;;;;;;5089750;28;20453;-58
2021/04/29 01:07:57;;;;;;;6.23;3.27;;;;;;;;;;5097255;28;20444;-58
2021/04/29 01:10:27;;;;;;;6.67;2.70;;;;;;;;;;5093798;28;20452;-56
2021/04/29 01:12:59;;;;;;;4.37;2.77;;;;;;;;;;5095969;28;20457;-58
2021/04/29 01:15:28;;;;;;;3.77;2.50;;;;;;;;;;5094590;28;20455;-56
2021/04/29 01:17:55;;;;;;;7.33;3.13;;;;;;;;;;5093109;28;20448;-57
2021/04/29 01:20:31;;;;;;;4.77;2.50;;;;;;;;;;5079407;28;20444;-58
2021/04/29 01:23:06;;;;;;;4.43;2.70;;;;;;;;;;5081415;28;20452;-49
2021/04/29 01:25:45;;;;;;;4.57;2.50;;;;;;;;;;5076744;28;20467;-58
2021/04/29 01:28:14;;;;;;;5.27;2.83;;;;;;;;;;5086119;28;20484;-46
2021/04/29 01:30:41;;;;;;;5.87;3.10;;;;;;;;;;5096786;28;20448;-55
2021/04/29 01:33:17;;;;;;;3.50;2.30;;;;;;;;;;5091427;28;20465;-55
2021/04/29 01:35:44;;;;;;;4.20;2.43;;;;;;;;;;5076120;28;20527;-52
2021/04/29 01:38:11;;;;;;;5.67;3.00;;;;;;;;;;5082987;28;20449;-52
2021/04/29 01:40:42;;;;;;;5.33;2.73;;;;;;;;;;5075832;28;20485;-52
2021/04/29 01:43:08;;;;;;;4.97;2.47;;;;;;;;;;5087890;28;20445;-51
2021/04/29 01:45:36;;;;;;;4.30;2.90;;;;;;;;;;5076906;28;20520;-53
2021/04/29 01:48:10;;;;;;;4.57;3.43;;;;;;;;;;5078758;28;20476;-57
2021/04/29 01:50:37;;;;;;;4.53;2.87;;;;;;;;;;5077321;28;20472;-50
2021/04/29 01:53:08;;;;;;;5.37;3.07;;;;;;;;;;5078810;28;20413;-53
2021/04/29 01:55:46;;;;;;;7.37;3.83;;;;;;;;;;5078437;28;20488;-48
2021/04/29 01:58:14;;;;;;;4.30;2.60;;;;;;;;;;5092745;28;20502;-55
2021/04/29 02:00:46;;;;;;;6.63;2.63;;;;;;;;;;5087854;28;20468;-53
2021/04/29 02:03:40;;;;;;;5.30;2.77;;;;;;;;;;5095856;28;20456;-58
2021/04/29 02:06:08;;;;;;;4.10;2.90;;;;;;;;;;5092965;28;20503;-53
2021/04/29 02:08:38;;;;;;;6.63;2.73;;;;;;;;;;5095961;28;20487;-55
2021/04/29 02:11:21;;;;;;;7.17;3.30;;;;;;;;;;5079998;28;20449;-51
2021/04/29 02:13:50;;;;;;;5.07;2.90;;;;;;;;;;5094973;28;20475;-56
2021/04/29 02:16:18;;;;;;;4.67;2.70;;;;;;;;;;5083278;28;20437;-54
2021/04/29 02:18:52;;;;;;;5.63;2.37;;;;;;;;;;5078098;28;20461;-55
2021/04/29 02:21:22;;;;;;;5.33;2.80;;;;;;;;;;5095718;28;20479;-55
2021/04/29 02:23:49;;;;;;;5.93;3.00;;;;;;;;;;5081130;28;20476;-51
2021/04/29 02:26:27;;;;;;;6.97;3.03;;;;;;;;;;5075129;28;20449;-50
2021/04/29 02:28:55;;;;;;;6.27;2.90;;;;;;;;;;5073540;28;20503;-56
2021/04/29 02:31:24;;;;;;;5.50;2.87;;;;;;;;;;5076306;28;20465;-52
2021/04/29 02:34:01;;;;;;;5.40;2.87;;;;;;;;;;5076000;28;20457;-51
2021/04/29 02:36:28;;;;;;;5.63;3.60;;;;;;;;;;5076174;28;20440;-51
2021/04/29 02:38:55;;;;;;;8.57;2.97;;;;;;;;;;5075643;28;20472;-51
2021/04/29 02:41:27;;;;;;;5.23;2.70;;;;;;;;;;5060961;28;20430;-54
2021/04/29 02:43:54;;;;;;;5.30;3.37;;;;;;;;;;5056957;28;20454;-53
2021/04/29 02:46:21;;;;;;;4.87;2.80;;;;;;;;;;5058825;28;20449;-58
2021/04/29 02:48:49;;;;;;;9.20;3.97;;;;;;;;;;5074638;28;20493;-55
2021/04/29 02:51:16;;;;;;;6.20;2.70;;;;;;;;;;5075244;28;20453;-52
2021/04/29 02:53:44;;;;;;;10.87;3.60;;;;;;;;;;5075477;28;20433;-50
2021/04/29 02:56:11;;;;;;;6.20;2.93;;;;;;;;;;5072589;28;20465;-54
2021/04/29 02:58:45;;;;;;;6.70;3.47;;;;;;;;;;5075270;28;20460;-49
2021/04/29 03:01:14;;;;;;;4.97;3.00;;;;;;;;;;5075195;28;20468;-54
2021/04/29 03:03:41;;;;;;;4.47;2.80;;;;;;;;;;5076226;28;20441;-55
2021/04/29 03:06:09;;;;;;;4.73;3.27;;;;;;;;;;5068548;28;20437;-59
2021/04/29 03:08:55;;;;;;;5.07;3.60;;;;;;;;;;5058937;28;20534;-54
2021/04/29 03:11:26;;;;;;;6.30;3.67;;;;;;;;;;5077644;28;20488;-55
2021/04/29 03:13:53;;;;;;;6.17;3.73;;;;;;;;;;5077406;28;20465;-61
2021/04/29 03:16:20;;;;;;;7.73;2.90;;;;;;;;;;5074731;28;20461;-54
2021/04/29 03:18:47;;;;;;;8.20;3.83;;;;;;;;;;5077689;28;20469;-55
2021/04/29 03:21:22;;;;;;;6.77;3.77;;;;;;;;;;5075683;28;20496;-53
2021/04/29 03:23:48;;;;;;;8.10;3.97;;;;;;;;;;5072552;28;20449;-57
2021/04/29 03:26:15;;;;;;;7.10;3.40;;;;;;;;;;5077121;28;20452;-59
2021/04/29 03:28:42;;;;;;;6.00;3.50;;;;;;;;;;5074132;28;20536;-57
2021/04/29 03:31:09;;;;;;;6.50;4.40;;;;;;;;;;5058307;28;20454;-60
2021/04/29 03:33:45;;;;;;;8.83;4.57;;;;;;;;;;5062293;28;20491;-57
2021/04/29 03:36:12;;;;;;;8.50;4.10;;;;;;;;;;5078319;28;20461;-55
2021/04/29 03:38:40;;;;;;;6.37;4.20;;;;;;;;;;5073252;28;20450;-52
2021/04/29 03:41:07;;;;;;;9.23;3.73;;;;;;;;;;5058559;28;20557;-56
2021/04/29 03:43:34;;;;;;;7.50;3.93;;;;;;;;;;5063023;28;20492;-55
2021/04/29 03:46:01;;;;;;;5.90;4.10;;;;;;;;;;5058105;28;20458;-58
2021/04/29 03:48:39;;;;;;;6.00;4.43;;;;;;;;;;5071977;28;20481;-58
2021/04/29 03:51:06;;;;;;;6.80;4.57;;;;;;;;;;5068735;28;20454;-52
2021/04/29 03:53:33;;;;;;;5.50;4.23;;;;;;;;;;5061946;28;20438;-55
2021/04/29 03:56:37;;;;;;;10.03;5.60;;;;;;;;;;5057958;28;20456;-56
2021/04/29 03:59:05;;;;;;;11.73;5.37;;;;;;;;;;5058219;28;20454;-55
2021/04/29 04:01:32;;;;;;;9.13;6.13;;;;;;;;;;5065582;28;20491;-50
2021/04/29 04:04:15;;;;;;;10.00;6.47;;;;;;;;;;5077739;28;20460;-55
2021/04/29 04:06:43;;;;;;;8.63;5.17;;;;;;;;;;5064506;28;20683;-56
2021/04/29 04:09:12;;;;;;;6.93;4.77;;;;;;;;;;5058174;28;20477;-56
2021/04/29 04:12:12;;;;;;;7.63;4.03;;;;;;;;;;5070758;28;20469;-59
2021/04/29 04:14:40;;;;;;;6.97;4.97;;;;;;;;;;5076698;28;20465;-59
2021/04/29 04:17:06;;;;;;;8.20;4.93;;;;;;;;;;5071174;28;20472;-54
2021/04/29 04:19:40;;;;;;;6.20;4.17;;;;;;;;;;5076776;28;20476;-57
2021/04/29 04:22:08;;;;;;;8.47;4.37;;;;;;;;;;5085016;28;20488;-55
2021/04/29 04:24:35;;;;;;;16.83;5.50;;;;;;;;;;5096820;28;20555;-56
2021/04/29 04:30:07;;;;;;;8.67;5.30;;;;;;;;;;5095184;28;20482;-57
2021/04/29 04:32:34;;;;;;;9.60;6.00;;;;;;;;;;5085060;28;20460;-56
2021/04/29 04:35:01;;;;;;;7.07;5.50;;;;;;;;;;5088678;28;20479;-58
2021/04/29 04:37:28;;;;;;;11.00;7.33;;;;;;;;;;5097662;28;20461;-58
2021/04/29 04:40:18;;;;;;;15.53;7.23;;;;;;;;;;5077539;28;20529;-58
2021/04/29 04:42:45;;;;;;;11.60;7.30;;;;;;;;;;5080303;28;20494;-55
2021/04/29 04:45:13;;;;;;;11.47;9.00;;;;;;;;;;5091263;28;20465;-53
2021/04/29 04:47:51;;;;;;;17.70;8.80;;;;;;;;;;5089722;28;20460;-55
2021/04/29 04:50:18;;;;;;;14.87;9.23;;;;;;;;;;5078032;28;20512;-57
2021/04/29 04:52:44;;;;;;;15.57;8.83;;;;;;;;;;5092508;28;20459;-57
2021/04/29 04:55:18;;;;;;;10.70;8.23;;;;;;;;;;5092814;28;20691;-54
2021/04/29 04:57:44;;;;;;;14.00;9.90;;;;;;;;;;5095777;28;20459;-54
2021/04/29 05:00:13;;;;;;;16.10;9.70;;;;;;;;;;5096573;28;20456;-58
2021/04/29 05:02:45;;;;;;;20.93;9.97;;;;;;;;;;5081451;28;20531;-58
2021/04/29 05:05:17;;;;;;;15.93;10.80;;;;;;;;;;5084899;28;20480;-50
2021/04/29 05:07:43;;;;;;;15.40;10.20;;;;;;;;;;5096322;28;20628;-50
2021/04/29 05:10:11;;;;;;;13.90;10.70;;;;;;;;;;5095308;28;20661;-56
2021/04/29 05:12:38;;;;;;;14.77;11.33;;;;;;;;;;5090446;28;20443;-50
2021/04/29 05:15:08;;;;;;;14.70;11.40;;;;;;;;;;5087574;28;20457;-54
2021/04/29 05:17:40;;;;;;;15.60;10.67;;;;;;;;;;5085991;28;20449;-53
2021/04/29 05:20:08;;;;;;;18.33;9.80;;;;;;;;;;5079879;28;20440;-60
2021/04/29 05:22:35;;;;;;;16.00;11.50;;;;;;;;;;5093569;28;20693;-60
2021/04/29 05:25:02;;;;;;;16.23;11.17;;;;;;;;;;5089807;28;20433;-58
2021/04/29 05:27:30;;;;;;;13.97;10.40;;;;;;;;;;5089919;28;20448;-55
2021/04/29 05:30:07;;;;;;;11.73;10.00;;;;;;;;;;5094509;28;20495;-61
2021/04/29 05:32:34;;;;;;;16.20;11.37;;;;;;;;;;5091276;28;20844;-53
2021/04/29 05:35:04;;;;;;;22.67;11.60;;;;;;;;;;5080447;28;20471;-57
2021/04/29 05:37:59;;;;;;;15.67;11.37;;;;;;;;;;5075187;28;20508;-54
2021/04/29 05:40:26;;;;;;;14.67;10.37;;;;;;;;;;5091226;28;20483;-59
2021/04/29 05:42:52;;;;;;;16.40;11.97;;;;;;;;;;5093436;28;20440;-51
2021/04/29 05:45:21;;;;;;;16.40;10.57;;;;;;;;;;5090202;28;20460;-51
2021/04/29 05:47:48;;;;;;;17.03;10.37;;;;;;;;;;5086817;28;20465;-55
2021/04/29 05:50:16;;;;;;;28.77;19.90;;;;;;;;;;5075476;28;20470;-57
2021/04/29 05:52:43;;;;;;;15.17;11.33;;;;;;;;;;5077647;28;20464;-54
2021/04/29 05:55:10;;;;;;;14.40;9.10;;;;;;;;;;5087962;28;20532;-57
2021/04/29 05:57:37;;;;;;;16.10;12.83;;;;;;;;;;5093593;28;20451;-53
2021/04/29 06:00:06;;;;;;;20.10;12.00;;;;;;;;;;5080060;28;20444;-53
2021/04/29 06:02:32;;;;;;;16.50;11.80;;;;;;;;;;5079648;28;20479;-58
2021/04/29 06:05:07;;;;;;;16.27;10.90;;;;;;;;;;5094668;28;20461;-58
2021/04/29 06:07:35;;;;;;;13.30;10.60;;;;;;;;;;5092688;28;20447;-54
2021/04/29 06:10:02;;;;;;;15.10;10.63;;;;;;;;;;5081104;28;20481;-58
2021/04/29 06:12:29;;;;;;;17.73;11.67;;;;;;;;;;5085444;28;20464;-59
2021/04/29 06:14:56;;;;;;;15.50;10.70;;;;;;;;;;5094369;28;20539;-54
2021/04/29 06:17:22;;;;;;;18.70;11.13;;;;;;;;;;5082010;28;20464;-54
2021/04/29 06:20:05;;;;;;;13.90;11.03;;;;;;;;;;5094335;28;20452;-54
2021/04/29 06:22:32;;;;;;;16.20;11.13;;;;;;;;;;5088950;28;20451;-61
2021/04/29 06:25:02;;;;;;;15.23;10.43;;;;;;;;;;5086399;28;20463;-59
2021/04/29 06:27:48;;;;;;;15.43;11.17;;;;;;;;;;5088272;28;20476;-59
2021/04/29 06:30:16;;;;;;;16.83;12.50;;;;;;;;;;5085382;28;20492;-56
2021/04/29 06:32:43;;;;;;;14.90;12.63;;;;;;;;;;5092338;28;20456;-55
2021/04/29 06:35:34;;;;;;;16.00;10.90;;;;;;;;;;5086934;28;20464;-60
2021/04/29 06:38:01;;;;;;;15.63;11.53;;;;;;;;;;5088315;28;20495;-56
2021/04/29 06:40:29;;;;;;;19.20;12.90;;;;;;;;;;5066322;28;20484;-53
2021/04/29 06:42:56;;;;;;;13.87;12.10;;;;;;;;;;5088270;28;20475;-49
2021/04/29 06:45:23;;;;;;;19.33;12.17;;;;;;;;;;5087840;28;20545;-54
2021/04/29 06:48:01;;;;;;;17.07;13.23;;;;;;;;;;5076557;28;20437;-54
2021/04/29 06:50:28;;;;;;;18.73;14.90;;;;;;;;;;5094971;28;20500;-56
2021/04/29 06:52:55;;;;;;;18.77;13.70;;;;;;;;;;5087883;28;20615;-58
2021/04/29 06:55:28;;;;;;;20.43;13.70;;;;;;;;;;5096727;28;20456;-56
2021/04/29 06:57:55;;;;;;;16.07;12.87;;;;;;;;;;5094557;28;20555;-58
2021/04/29 07:00:23;;;;;;;15.93;12.73;;;;;;;;;;5086601;28;20449;-53
2021/04/29 07:02:55;;;;;;;15.97;12.60;;;;;;;;;;5081414;28;20535;-60
2021/04/29 07:05:22;;;;;;;19.47;13.37;;;;;;;;;;5079310;28;20453;-56
2021/04/29 07:07:50;;;;;;;20.90;14.50;;;;;;;;;;5081059;28;20479;-54
2021/04/29 07:10:19;;;;;;;15.07;12.30;;;;;;;;;;5096664;28;20496;-60
2021/04/29 07:12:47;;;;;;;16.90;14.93;;;;;;;;;;5095433;28;20496;-54
2021/04/29 07:15:18;;;;;;;22.90;14.70;;;;;;;;;;5097562;28;20450;-59
2021/04/29 07:17:47;;;;;;;25.60;14.80;;;;;;;;;;5092397;28;20543;-51
2021/04/29 07:20:15;;;;;;;24.03;18.43;;;;;;;;;;5097128;28;20479;-59
2021/04/29 07:22:48;;;;;;;22.20;17.70;;;;;;;;;;5097198;28;20531;-51
2021/04/29 07:25:15;;;;;;;25.27;20.23;;;;;;;;;;5097402;28;20553;-56
2021/04/29 07:27:48;;;;;;;27.47;18.83;;;;;;;;;;5097065;28;20448;-51
2021/04/29 07:30:16;;;;;;;28.87;19.30;;;;;;;;;;5096323;28;20514;-55
2021/04/29 07:32:46;;;;;;;23.83;17.57;;;;;;;;;;5095921;28;20535;-61
2021/04/29 07:35:22;;;;;;;26.67;19.73;;;;;;;;;;5095176;28;20668;-58
2021/04/29 07:37:49;;;;;;;26.23;18.27;;;;;;;;;;5097330;28;20446;-50
2021/04/29 07:40:18;;;;;;;28.30;20.53;;;;;;;;;;5089573;28;20465;-56
2021/04/29 07:43:02;;;;;;;32.70;19.93;;;;;;;;;;5079361;28;20461;-58
2021/04/29 07:45:32;;;;;;;29.50;21.10;;;;;;;;;;5090763;28;20488;-59
2021/04/29 07:48:00;;;;;;;33.93;20.40;;;;;;;;;;5082353;28;20449;-61
2021/04/29 07:50:31;;;;;;;28.97;20.07;;;;;;;;;;5075658;28;20544;-59
2021/04/29 07:52:58;;;;;;;28.63;19.50;;;;;;;;;;5088960;28;20470;-57
2021/04/29 07:58:28;;;;;;;28.37;21.17;;;;;;;;;;5094371;28;20475;-52
2021/04/29 08:01:03;;;;;;;31.77;21.93;;;;;;;;;;5095569;28;20455;-54
2021/04/29 08:04:01;;;;;;;33.30;21.07;;;;;;;;;;5083096;28;20463;-57
2021/04/29 08:06:28;;;;;;;29.00;20.40;;;;;;;;;;5095705;28;20472;-55
2021/04/29 08:08:55;;;;;;;29.80;19.87;;;;;;;;;;5096225;28;20475;-58
2021/04/29 08:14:26;;;;;;;28.43;20.87;;;;;;;;;;5076403;28;20407;-58
2021/04/29 08:16:54;;;;;;;24.83;19.67;;;;;;;;;;5079395;28;20443;-56
2021/04/29 08:19:46;;;;;;;34.13;22.20;;;;;;;;;;5093814;28;20460;-59
2021/04/29 08:22:13;;;;;;;26.60;21.17;;;;;;;;;;5089079;28;20498;-59
2021/04/29 08:24:40;;;;;;;32.43;23.00;;;;;;;;;;5096656;28;20505;-59
2021/04/29 08:27:31;;;;;;;37.63;24.40;;;;;;;;;;5096922;28;20444;-58
2021/04/29 08:29:59;;;;;;;47.60;25.87;;;;;;;;;;5093965;28;20500;-56
2021/04/29 08:32:36;;;;;;;39.10;27.70;;;;;;;;;;5096207;28;20433;-56
2021/04/29 08:35:12;;;;;;;35.60;24.60;;;;;;;;;;5093168;28;20452;-55
2021/04/29 08:37:39;;;;;;;36.20;27.07;;;;;;;;;;5079550;28;20463;-60
2021/04/29 08:40:32;;;;;;;31.87;24.67;;;;;;;;;;5076961;28;20413;-54
2021/04/29 08:43:05;;;;;;;29.97;22.10;;;;;;;;;;5076772;28;20564;-52
2021/04/29 08:45:47;;;;;;;37.33;25.73;;;;;;;;;;5076494;28;20543;-55
2021/04/29 08:50:52;;;;;;;30.03;22.70;;;;;;;;;;5085527;28;20518;-50
2021/04/29 08:53:20;;;;;;;32.80;20.97;;;;;;;;;;5075465;28;20460;-55
2021/04/29 08:55:48;;;;;;;27.80;19.20;;;;;;;;;;5075203;28;20450;-55
2021/04/29 08:58:44;;;;;;;30.07;18.97;;;;;;;;;;5078830;28;20456;-52
2021/04/29 09:01:11;;;;;;;32.27;21.73;;;;;;;;;;5079088;28;20488;-53
2021/04/29 09:03:40;;;;;;;33.90;23.50;;;;;;;;;;5075462;28;20457;-60
2021/04/29 09:06:14;;;;;;;41.77;22.67;;;;;;;;;;5074861;28;20460;-56
2021/04/29 09:08:42;;;;;;;29.93;23.37;;;;;;;;;;5086249;28;20515;-58
2021/04/29 09:11:11;;;;;;;33.73;24.20;;;;;;;;;;5080699;28;20454;-56
2021/04/29 09:13:55;;;;;;;29.73;22.40;;;;;;;;;;5077351;28;20507;-57
2021/04/29 09:16:23;;;;;;;39.63;28.23;;;;;;;;;;5094970;28;20886;-58
2021/04/29 09:18:50;;;;;;;32.10;24.50;;;;;;;;;;5095512;28;20463;-58
2021/04/29 09:24:31;;;;;;;39.03;26.57;;;;;;;;;;5089263;28;20486;-54
2021/04/29 09:27:08;;;;;;;32.67;24.40;;;;;;;;;;5094217;28;20448;-60
2021/04/29 09:29:35;;;;;;;32.73;23.80;;;;;;;;;;5095013;28;20647;-54
2021/04/29 09:32:02;;;;;;;33.53;26.40;;;;;;;;;;5094687;28;20852;-52
2021/04/29 09:34:39;;;;;;;32.20;24.23;;;;;;;;;;5087971;28;20493;-58
2021/04/29 09:40:24;;;;;;;30.90;22.97;;;;;;;;;;5088439;28;20502;-53
2021/04/29 09:42:51;;;;;;;35.00;25.90;;;;;;;;;;5082671;28;20457;-57
2021/04/29 09:45:30;;;;;;;30.10;23.43;;;;;;;;;;5084278;28;20471;-55
2021/04/29 09:47:59;;;;;;;51.23;26.13;;;;;;;;;;5091580;28;20456;-61
2021/04/29 09:50:26;;;;;;;31.50;25.17;;;;;;;;;;5084068;28;20483;-54
2021/04/29 09:53:24;;;;;;;38.87;25.27;;;;;;;;;;5086425;28;20455;-57
2021/04/29 09:56:30;;;;;;;30.17;23.70;;;;;;;;;;5083036;28;20451;-58
2021/04/29 09:59:30;;;;;;;30.50;24.00;;;;;;;;;;5075679;28;20447;-62
2021/04/29 10:02:04;;;;;;;34.73;24.17;;;;;;;;;;5089883;28;20511;-56
2021/04/29 10:04:32;;;;;;;30.37;23.80;;;;;;;;;;5074414;28;20449;-57
2021/04/29 10:07:01;;;;;;;33.40;24.70;;;;;;;;;;5083474;28;20485;-58
2021/04/29 10:09:29;;;;;;;34.83;23.83;;;;;;;;;;5077966;28;20480;-59
2021/04/29 10:11:58;;;;;;;35.97;25.43;;;;;;;;;;5075186;28;20429;-58
2021/04/29 10:14:48;;;;;;;33.13;23.17;;;;;;;;;;5077938;28;20453;-60
2021/04/29 10:17:16;;;;;;;29.00;21.80;;;;;;;;;;5074644;28;20433;-51
2021/04/29 10:19:45;;;;;;;32.53;20.30;;;;;;;;;;5087421;28;20459;-55
2021/04/29 10:22:15;;;;;;;33.00;21.80;;;;;;;;;;5090936;28;20681;-56
2021/04/29 10:24:43;;;;;;;37.10;27.07;;;;;;;;;;5086158;28;20443;-55
2021/04/29 10:30:18;;;;;;;38.30;26.97;;;;;;;;;;5089505;28;20552;-55
2021/04/29 10:32:48;;;;;;;32.47;22.90;;;;;;;;;;5084197;28;20620;-54
2021/04/29 10:35:28;;;;;;;27.33;20.83;;;;;;;;;;5094534;28;20456;-55
2021/04/29 10:37:56;;;;;;;24.90;18.97;;;;;;;;;;5080426;28;20456;-54
2021/04/29 10:40:39;;;;;;;26.60;21.83;;;;;;;;;;5075628;28;20521;-55
2021/04/29 10:43:10;;;;;;;33.20;24.23;;;;;;;;;;5074085;28;20457;-57
2021/04/29 10:46:04;;;;;;;34.07;22.77;;;;;;;;;;5083612;28;20448;-56
2021/04/29 10:48:33;;;;;;;34.57;25.27;;;;;;;;;;5095799;28;20482;-56
2021/04/29 10:51:08;;;;;;;32.17;27.37;;;;;;;;;;5081084;28;20516;-55
2021/04/29 10:53:37;;;;;;;34.00;28.40;;;;;;;;;;5075975;28;20442;-59
2021/04/29 10:56:05;;;;;;;41.67;29.17;;;;;;;;;;5091455;28;20516;-54
2021/04/29 10:58:32;;;;;;;39.37;29.10;;;;;;;;;;5077659;28;20648;-56
2021/04/29 11:01:24;;;;;;;44.23;28.53;;;;;;;;;;5077536;28;20516;-54
2021/04/29 11:03:53;;;;;;;36.50;26.97;;;;;;;;;;5091392;28;20446;-57
2021/04/29 11:06:22;;;;;;;34.60;26.47;;;;;;;;;;5079516;28;20495;-59
2021/04/29 11:08:50;;;;;;;36.40;26.77;;;;;;;;;;5074385;28;20492;-58
2021/04/29 11:11:27;;;;;;;40.43;28.83;;;;;;;;;;5080248;28;20468;-55
2021/04/29 11:14:02;;;;;;;36.30;26.93;;;;;;;;;;5094798;28;20460;-57
2021/04/29 11:16:31;;;;;;;35.23;22.03;;;;;;;;;;5091173;28;20457;-56
2021/04/29 11:18:59;;;;;;;30.47;21.00;;;;;;;;;;5094622;28;20463;-58
2021/04/29 11:21:27;;;;;;;22.23;18.40;;;;;;;;;;5095275;28;20444;-54
2021/04/29 11:23:54;;;;;;;21.17;15.90;;;;;;;;;;5093442;28;20488;-60
2021/04/29 11:26:23;;;;;;;22.03;14.93;;;;;;;;;;5098038;28;20472;-56
2021/04/29 11:29:01;;;;;;;19.40;15.37;;;;;;;;;;5098653;28;20488;-51
2021/04/29 11:31:38;;;;;;;17.97;13.77;;;;;;;;;;5098729;28;20478;-55
2021/04/29 11:34:06;;;;;;;16.40;12.23;;;;;;;;;;5080322;28;20460;-55
2021/04/29 11:36:33;;;;;;;19.67;13.80;;;;;;;;;;5078250;28;20457;-51
2021/04/29 11:39:01;;;;;;;16.37;11.80;;;;;;;;;;5097903;28;20463;-59
2021/04/29 11:41:33;;;;;;;15.60;12.10;;;;;;;;;;5098462;28;20535;-58
2021/04/29 11:44:01;;;;;;;16.40;10.20;;;;;;;;;;5096315;28;20522;-57
2021/04/29 11:46:28;;;;;;;11.90;8.33;;;;;;;;;;5090597;28;20490;-56
2021/04/29 11:48:56;;;;;;;12.07;9.00;;;;;;;;;;5096545;28;20491;-60
2021/04/29 11:51:31;;;;;;;10.37;8.03;;;;;;;;;;5085005;28;20531;-54
2021/04/29 11:54:02;;;;;;;17.80;8.90;;;;;;;;;;5096961;28;20489;-51
2021/04/29 11:56:41;;;;;;;12.33;9.10;;;;;;;;;;5098207;28;20448;-57
2021/04/29 11:59:17;;;;;;;16.03;9.10;;;;;;;;;;5098421;28;20460;-55
2021/04/29 12:01:55;;;;;;;13.60;9.83;;;;;;;;;;5099034;28;20444;-59
2021/04/29 12:04:23;;;;;;;14.83;9.20;;;;;;;;;;5089083;28;20437;-60
2021/04/29 12:06:54;;;;;;;15.17;10.13;;;;;;;;;;5083562;28;20483;-60
2021/04/29 12:09:28;;;;;;;13.07;10.47;;;;;;;;;;5077610;28;20472;-58
2021/04/29 12:11:55;;;;;;;13.37;10.23;;;;;;;;;;5080107;28;20494;-61
2021/04/29 12:14:22;;;;;;;10.57;8.90;;;;;;;;;;5077343;28;20449;-58
2021/04/29 12:17:14;;;;;;;11.20;8.83;;;;;;;;;;5077707;28;20464;-57
2021/04/29 12:19:44;;;;;;;10.40;8.53;;;;;;;;;;5095652;28;20460;-57
2021/04/29 12:22:14;;;;;;;10.20;8.03;;;;;;;;;;5080521;28;20451;-52
2021/04/29 12:25:07;;;;;;;20.20;8.90;;;;;;;;;;5090403;28;20459;-52
2021/04/29 12:27:40;;;;;;;13.53;8.50;;;;;;;;;;5087147;28;20482;-61
2021/04/29 12:30:09;;;;;;;9.83;6.67;;;;;;;;;;5097075;28;20472;-59
2021/04/29 12:32:53;;;;;;;14.87;7.33;;;;;;;;;;5088536;28;20546;-54
2021/04/29 12:35:35;;;;;;;11.93;7.60;;;;;;;;;;5072906;28;20487;-59
2021/04/29 12:38:32;;;;;;;15.47;7.80;;;;;;;;;;5082036;28;20550;-56
2021/04/29 12:41:05;;;;;;;12.17;7.73;;;;;;;;;;5080177;28;20465;-56
2021/04/29 12:43:32;;;;;;;19.17;8.30;;;;;;;;;;5093874;28;20472;-55
2021/04/29 12:46:12;;;;;;;13.20;8.13;;;;;;;;;;5087021;28;20460;-52
2021/04/29 12:48:40;;;;;;;12.70;8.07;;;;;;;;;;5090366;28;20468;-56
2021/04/29 12:51:10;;;;;;;19.13;9.00;;;;;;;;;;5094054;28;20504;-53
2021/04/29 12:54:05;;;;;;;16.70;8.00;;;;;;;;;;5095027;28;20437;-55
2021/04/29 12:56:34;;;;;;;9.33;7.20;;;;;;;;;;5088939;28;20445;-55
2021/04/29 12:59:26;;;;;;;11.57;6.70;;;;;;;;;;5092124;28;20459;-55
2021/04/29 13:04:45;;;;;;;9.47;6.07;;;;;;;;;;5086262;28;20464;-54
2021/04/29 13:07:21;;;;;;;15.90;6.00;;;;;;;;;;5090322;28;20456;-60
2021/04/29 13:12:55;;;;;;;11.93;5.40;;;;;;;;;;5081746;28;20419;-54
2021/04/29 13:15:22;;;;;;;14.43;5.40;;;;;;;;;;5088478;28;20517;-57
2021/04/29 13:18:00;;;;;;;8.33;4.93;;;;;;;;;;5090799;28;20464;-58
2021/04/29 13:20:30;;;;;;;11.57;5.60;;;;;;;;;;5087129;28;20440;-55
2021/04/29 13:22:57;;;;;;;39.27;6.03;;;;;;;;;;5090083;28;20445;-57
2021/04/29 13:28:30;;;;;;;15.60;5.67;;;;;;;;;;5089396;28;20446;-53
2021/04/29 13:31:08;;;;;;;14.30;6.47;;;;;;;;;;5092779;28;20472;-53
2021/04/29 13:33:59;;;;;;;16.00;7.90;;;;;;;;;;5090640;28;20459;-54
2021/04/29 13:36:26;;;;;;;13.83;7.57;;;;;;;;;;5079026;28;20444;-56
2021/04/29 13:38:53;;;;;;;12.07;7.23;;;;;;;;;;5082911;28;20458;-57
2021/04/29 13:41:21;;;;;;;12.00;6.10;;;;;;;;;;5086988;28;20797;-52
2021/04/29 13:43:49;;;;;;;15.93;6.23;;;;;;;;;;5089764;28;20440;-51
2021/04/29 13:46:18;;;;;;;17.40;6.97;;;;;;;;;;5077224;28;20441;-50
2021/04/29 13:48:59;;;;;;;10.40;7.53;;;;;;;;;;5084213;28;20445;-58
2021/04/29 13:51:27;;;;;;;9.33;6.13;;;;;;;;;;5089245;28;20457;-52
2021/04/29 13:54:03;;;;;;;17.10;6.30;;;;;;;;;;5087815;28;20477;-58
2021/04/29 13:56:56;;;;;;;7.83;6.37;;;;;;;;;;5088062;28;20453;-61
2021/04/29 13:59:43;;;;;;;10.63;7.07;;;;;;;;;;5090572;28;20448;-58
2021/04/29 14:02:54;;;;;;;10.63;8.07;;;;;;;;;;5095792;28;20452;-59
2021/04/29 14:05:21;;;;;;;10.20;6.90;;;;;;;;;;5074930;28;20483;-56
2021/04/29 14:07:57;;;;;;;8.47;7.07;;;;;;;;;;5079485;28;20460;-57
2021/04/29 14:10:37;;;;;;;17.43;8.00;;;;;;;;;;5077723;28;20492;-54
2021/04/29 14:13:06;;;;;;;9.83;6.40;;;;;;;;;;5089267;28;20541;-60
2021/04/29 14:15:39;;;;;;;12.10;6.53;;;;;;;;;;5076155;28;20460;-55
2021/04/29 14:18:07;;;;;;;7.23;5.53;;;;;;;;;;5093535;28;20473;-55
2021/04/29 14:20:33;;;;;;;8.27;6.37;;;;;;;;;;5076798;28;20471;-57
2021/04/29 14:23:00;;;;;;;7.90;6.03;;;;;;;;;;5075435;28;20541;-54
2021/04/29 14:25:44;;;;;;;9.93;5.97;;;;;;;;;;5091873;28;20507;-59
2021/04/29 14:28:11;;;;;;;7.57;5.07;;;;;;;;;;5081843;28;20519;-52
2021/04/29 14:30:41;;;;;;;7.60;6.03;;;;;;;;;;5091426;28;20492;-56
2021/04/29 14:33:08;;;;;;;7.30;5.93;;;;;;;;;;5077671;28;20460;-58
2021/04/29 14:35:34;;;;;;;7.03;5.00;;;;;;;;;;5074345;28;20437;-59
2021/04/29 14:38:33;;;;;;;9.30;5.67;;;;;;;;;;5075086;28;20434;-52
2021/04/29 14:40:59;;;;;;;6.37;5.07;;;;;;;;;;5073732;28;20685;-57
2021/04/29 14:43:26;;;;;;;5.67;5.07;;;;;;;;;;5086851;28;20684;-56
2021/04/29 14:46:03;;;;;;;6.73;5.70;;;;;;;;;;5091589;28;20451;-60
2021/04/29 14:48:31;;;;;;;6.13;5.53;;;;;;;;;;5072639;28;20456;-59
2021/04/29 14:50:57;;;;;;;7.83;5.90;;;;;;;;;;5072662;28;20550;-60
2021/04/29 14:53:44;;;;;;;7.17;5.23;;;;;;;;;;5073149;28;20451;-65
2021/04/29 14:56:20;;;;;;;6.60;5.30;;;;;;;;;;5080024;28;20475;-58
2021/04/29 14:58:51;;;;;;;7.90;4.20;;;;;;;;;;5078160;28;20567;-59
2021/04/29 15:01:21;;;;;;;8.77;6.00;;;;;;;;;;5095430;28;20478;-57
2021/04/29 15:03:48;;;;;;;7.37;5.60;;;;;;;;;;5077913;28;20512;-56
2021/04/29 15:06:16;;;;;;;9.17;4.77;;;;;;;;;;5077281;28;20496;-56
2021/04/29 15:08:43;;;;;;;6.10;5.30;;;;;;;;;;5076534;28;20452;-58
2021/04/29 15:11:10;;;;;;;7.00;5.47;;;;;;;;;;5080664;28;20773;-58
2021/04/29 15:13:50;;;;;;;7.83;5.13;;;;;;;;;;5096985;28;20470;-57
2021/04/29 15:16:17;;;;;;;6.83;4.80;;;;;;;;;;5097731;28;20501;-58
2021/04/29 15:18:52;;;;;;;7.20;6.00;;;;;;;;;;5097432;28;20456;-53
2021/04/29 15:21:22;;;;;;;6.50;5.47;;;;;;;;;;5091134;28;20464;-55
2021/04/29 15:23:50;;;;;;;6.63;4.60;;;;;;;;;;5096348;28;20455;-55
2021/04/29 15:29:22;;;;;;;10.17;5.50;;;;;;;;;;5087054;28;20546;-58
2021/04/29 15:31:48;;;;;;;14.00;6.57;;;;;;;;;;5087200;28;20465;-57
2021/04/29 15:34:18;;;;;;;8.10;5.80;;;;;;;;;;5097089;28;20462;-57
2021/04/29 15:36:45;;;;;;;10.27;5.03;;;;;;;;;;5082096;28;20449;-54